createdAt,value
2022-07-25T00:01:08.713Z,47.47
2022-07-25T00:03:40.555Z,47.35
2022-07-25T00:06:17.808Z,47.11
2022-07-25T00:08:49.423Z,47.83
2022-07-25T00:11:19.388Z,50.36
2022-07-25T00:13:49.851Z,51.60
2022-07-25T00:16:20.397Z,51.26
2022-07-25T00:18:50.560Z,51.16
2022-07-25T00:21:20.526Z,49.96
2022-07-25T00:23:51.942Z,48.40
2022-07-25T00:26:22.009Z,48.09
2022-07-25T00:28:52.248Z,47.97
2022-07-25T00:31:22.311Z,47.87
2022-07-25T00:33:52.301Z,47.24
2022-07-25T00:36:22.530Z,46.96
2022-07-25T00:38:53.926Z,46.79
2022-07-25T00:41:24.050Z,46.28
2022-07-25T00:43:54.129Z,47.04
2022-07-25T00:46:24.532Z,47.13
2022-07-25T00:48:54.509Z,46.83
2022-07-25T00:51:24.639Z,46.16
2022-07-25T00:53:57.040Z,45.84
2022-07-25T00:56:27.623Z,45.60
2022-07-25T00:58:57.762Z,45.39
2022-07-25T01:01:27.875Z,45.51
2022-07-25T01:03:58.114Z,44.09
2022-07-25T01:06:28.606Z,44.35
2022-07-25T01:09:00.307Z,44.44
2022-07-25T01:11:30.271Z,44.86
2022-07-25T01:14:00.776Z,44.96
2022-07-25T01:16:31.196Z,45.39
2022-07-25T01:19:02.334Z,45.59
2022-07-25T01:21:33.693Z,46.37
2022-07-25T01:24:03.983Z,46.47
2022-07-25T01:26:34.345Z,46.37
2022-07-25T01:29:04.470Z,46.82
2022-07-25T01:31:34.487Z,47.50
2022-07-25T01:34:04.779Z,47.79
2022-07-25T01:36:36.636Z,48.22
2022-07-25T01:39:06.698Z,48.19
2022-07-25T01:41:36.685Z,48.41
2022-07-25T01:44:07.163Z,47.92
2022-07-25T01:46:38.514Z,48.59
2022-07-25T01:49:08.625Z,48.89
2022-07-25T01:51:40.005Z,48.76
2022-07-25T01:54:10.486Z,48.57
2022-07-25T01:56:47.089Z,49.02
2022-07-25T01:59:18.458Z,49.44
2022-07-25T02:01:48.570Z,49.89
2022-07-25T02:04:18.593Z,51.37
2022-07-25T02:06:50.122Z,51.66
2022-07-25T02:09:19.964Z,52.83
2022-07-25T02:11:50.593Z,53.29
2022-07-25T02:14:20.888Z,53.04
2022-07-25T02:16:51.379Z,53.66
2022-07-25T02:19:21.331Z,54.13
2022-07-25T02:21:52.834Z,54.96
2022-07-25T02:24:22.822Z,55.17
2022-07-25T02:26:53.013Z,54.82
2022-07-25T02:29:23.079Z,54.96
2022-07-25T02:31:53.197Z,55.31
2022-07-25T02:34:23.163Z,55.31
2022-07-25T02:36:54.530Z,55.35
2022-07-25T02:39:25.438Z,55.87
2022-07-25T02:41:55.387Z,56.66
2022-07-25T02:44:25.563Z,56.11
2022-07-25T02:46:55.497Z,55.75
2022-07-25T02:49:25.468Z,55.48
2022-07-25T02:51:57.676Z,54.75
2022-07-25T02:54:27.803Z,53.33
2022-07-25T02:56:57.802Z,53.26
2022-07-25T02:59:32.386Z,52.76
2022-07-25T03:02:02.430Z,52.55
2022-07-25T03:04:32.422Z,52.62
2022-07-25T03:07:03.840Z,51.96
2022-07-25T03:09:33.780Z,53.02
2022-07-25T03:12:04.694Z,55.31
2022-07-25T03:14:35.181Z,56.39
2022-07-25T03:17:05.410Z,56.07
2022-07-25T03:19:35.518Z,56.49
2022-07-25T03:22:06.813Z,56.60
2022-07-25T03:24:36.816Z,56.60
2022-07-25T03:27:06.955Z,56.52
2022-07-25T03:29:37.035Z,56.17
2022-07-25T03:32:08.219Z,55.49
2022-07-25T03:34:38.765Z,55.07
2022-07-25T03:37:10.077Z,55.35
2022-07-25T03:39:40.954Z,55.28
2022-07-25T03:42:11.815Z,55.36
2022-07-25T03:44:41.707Z,55.21
2022-07-25T03:47:11.672Z,55.28
2022-07-25T03:49:50.672Z,55.64
2022-07-25T03:52:21.959Z,55.37
2022-07-25T03:54:51.875Z,55.39
2022-07-25T03:57:21.858Z,55.66
2022-07-25T03:59:51.713Z,55.92
2022-07-25T04:02:21.666Z,56.01
2022-07-25T04:04:51.753Z,55.64
2022-07-25T04:07:23.244Z,55.63
2022-07-25T04:09:53.180Z,55.67
2022-07-25T04:12:23.911Z,55.70
2022-07-25T04:14:54.275Z,55.35
2022-07-25T04:17:25.296Z,55.29
2022-07-25T04:19:55.772Z,55.20
2022-07-25T04:22:28.097Z,55.15
2022-07-25T04:24:57.992Z,55.34
2022-07-25T04:27:28.076Z,55.76
2022-07-25T04:29:58.977Z,55.79
2022-07-25T04:32:29.055Z,56.14
2022-07-25T04:34:58.925Z,56.04
2022-07-25T04:37:30.611Z,55.67
2022-07-25T04:40:00.441Z,56.28
2022-07-25T04:42:30.582Z,56.52
2022-07-25T04:45:00.524Z,56.36
2022-07-25T04:47:30.578Z,56.42
2022-07-25T04:50:01.286Z,56.67
2022-07-25T04:52:32.601Z,56.79
2022-07-25T04:55:04.280Z,57.09
2022-07-25T04:57:34.498Z,56.93
2022-07-25T05:00:05.350Z,56.81
2022-07-25T05:02:36.346Z,56.62
2022-07-25T05:05:07.167Z,56.42
2022-07-25T05:07:38.711Z,56.29
2022-07-25T05:10:09.291Z,55.78
2022-07-25T05:12:39.686Z,55.66
2022-07-25T05:15:11.267Z,55.33
2022-07-25T05:17:41.308Z,55.24
2022-07-25T05:20:13.779Z,54.96
2022-07-25T05:22:45.225Z,54.75
2022-07-25T05:25:15.216Z,54.39
2022-07-25T05:27:45.562Z,54.57
2022-07-25T05:30:16.368Z,54.22
2022-07-25T05:32:46.303Z,54.28
2022-07-25T05:35:17.430Z,54.01
2022-07-25T05:37:49.822Z,53.75
2022-07-25T05:40:19.847Z,53.47
2022-07-25T05:42:49.787Z,53.17
2022-07-25T05:45:19.735Z,53.17
2022-07-25T05:47:49.577Z,53.60
2022-07-25T05:50:19.656Z,53.81
2022-07-25T05:52:50.963Z,52.85
2022-07-25T05:55:21.106Z,51.92
2022-07-25T05:57:51.090Z,50.92
2022-07-25T06:00:21.179Z,51.09
2022-07-25T06:02:51.191Z,51.23
2022-07-25T06:05:22.451Z,51.59
2022-07-25T06:07:53.905Z,51.15
2022-07-25T06:10:24.063Z,51.37
2022-07-25T06:12:54.283Z,51.02
2022-07-25T06:15:26.601Z,50.52
2022-07-25T06:17:57.673Z,51.05
2022-07-25T06:20:29.664Z,50.92
2022-07-25T06:23:03.904Z,50.59
2022-07-25T06:25:34.411Z,51.08
2022-07-25T06:28:04.873Z,50.37
2022-07-25T06:30:34.883Z,50.38
2022-07-25T06:33:04.938Z,50.72
2022-07-25T06:35:36.801Z,50.05
2022-07-25T06:38:10.337Z,51.28
2022-07-25T06:40:40.007Z,52.04
2022-07-25T06:43:09.887Z,52.41
2022-07-25T06:45:39.831Z,52.58
2022-07-25T06:48:11.088Z,50.34
2022-07-25T06:50:41.291Z,51.35
2022-07-25T06:53:12.680Z,52.58
2022-07-25T06:55:42.895Z,52.72
2022-07-25T06:58:13.042Z,51.54
2022-07-25T07:00:43.230Z,50.78
2022-07-25T07:03:13.532Z,51.46
2022-07-25T07:05:43.422Z,52.48
2022-07-25T07:08:15.264Z,51.92
2022-07-25T07:10:45.191Z,51.09
2022-07-25T07:13:23.874Z,50.38
2022-07-25T07:15:55.905Z,50.71
2022-07-25T07:18:25.988Z,51.16
2022-07-25T07:20:55.857Z,51.62
2022-07-25T07:23:27.390Z,50.87
2022-07-25T07:25:59.131Z,50.70
2022-07-25T07:28:29.308Z,49.56
2022-07-25T07:31:15.836Z,49.04
2022-07-25T07:33:47.000Z,48.74
2022-07-25T07:36:16.919Z,48.11
2022-07-25T07:38:50.178Z,48.56
2022-07-25T07:41:20.490Z,48.51
2022-07-25T07:43:50.614Z,48.04
2022-07-25T07:46:20.670Z,47.32
2022-07-25T07:48:50.669Z,46.22
2022-07-25T07:51:21.140Z,44.87
2022-07-25T07:54:09.875Z,45.06
2022-07-25T07:56:39.796Z,45.28
2022-07-25T07:59:10.547Z,45.27
2022-07-25T08:01:40.828Z,44.64
2022-07-25T08:04:11.454Z,44.49
2022-07-25T08:06:43.247Z,45.88
2022-07-25T08:09:14.719Z,45.61
2022-07-25T08:11:45.387Z,44.71
2022-07-25T08:14:15.905Z,44.77
2022-07-25T08:16:45.924Z,44.58
2022-07-25T08:19:16.037Z,44.96
2022-07-25T08:21:47.144Z,44.78
2022-07-25T08:24:18.873Z,44.77
2022-07-25T08:26:48.807Z,45.20
2022-07-25T08:29:20.668Z,44.79
2022-07-25T08:31:52.911Z,44.81
2022-07-25T08:34:22.937Z,44.47
2022-07-25T08:36:52.789Z,43.67
2022-07-25T08:39:24.267Z,43.62
2022-07-25T08:41:54.401Z,43.17
2022-07-25T08:44:31.068Z,43.43
2022-07-25T08:47:01.965Z,43.41
2022-07-25T08:49:32.064Z,43.33
2022-07-25T08:52:03.837Z,43.64
2022-07-25T08:54:35.200Z,44.04
2022-07-25T08:57:05.544Z,43.74
2022-07-25T08:59:35.513Z,43.79
2022-07-25T09:02:08.956Z,43.64
2022-07-25T09:04:38.839Z,43.30
2022-07-25T09:07:08.931Z,43.05
2022-07-25T09:09:40.578Z,43.07
2022-07-25T09:12:11.074Z,44.16
2022-07-25T09:14:45.460Z,43.36
2022-07-25T09:17:21.938Z,43.06
2022-07-25T09:19:54.715Z,43.21
2022-07-25T09:22:24.890Z,43.09
2022-07-25T09:24:56.457Z,43.06
2022-07-25T09:27:26.638Z,42.74
2022-07-25T09:29:57.083Z,42.96
2022-07-25T09:32:26.999Z,42.52
2022-07-25T09:34:56.893Z,42.90
2022-07-25T09:37:27.964Z,42.78
2022-07-25T09:39:59.538Z,42.40
2022-07-25T09:42:32.342Z,41.66
2022-07-25T09:45:11.502Z,41.36
2022-07-25T09:47:52.678Z,40.90
2022-07-25T09:50:24.368Z,41.02
2022-07-25T09:52:56.664Z,41.65
2022-07-25T09:55:28.106Z,41.25
2022-07-25T09:57:58.436Z,41.51
2022-07-25T10:00:30.328Z,41.62
2022-07-25T10:03:13.057Z,41.44
2022-07-25T10:05:52.308Z,41.41
2022-07-25T10:08:23.571Z,40.76
2022-07-25T10:10:55.299Z,41.24
2022-07-25T10:13:35.292Z,41.29
2022-07-25T10:16:16.978Z,41.06
2022-07-25T10:18:52.499Z,40.93
2022-07-25T10:21:27.258Z,40.94
2022-07-25T10:24:04.135Z,40.86
2022-07-25T10:26:39.850Z,40.73
2022-07-25T10:29:11.824Z,40.41
2022-07-25T10:31:50.467Z,40.75
2022-07-25T10:34:31.880Z,40.81
2022-07-25T10:37:11.481Z,40.52
2022-07-25T10:39:42.779Z,41.08
2022-07-25T10:42:16.816Z,41.32
2022-07-25T10:44:49.187Z,40.27
2022-07-25T10:47:19.398Z,40.20
2022-07-25T10:50:13.900Z,40.13
2022-07-25T10:52:43.476Z,40.52
2022-07-25T10:55:23.863Z,40.68
2022-07-25T10:58:17.185Z,40.60
2022-07-25T11:00:47.989Z,40.34
2022-07-25T11:03:18.710Z,40.16
2022-07-25T11:05:49.247Z,40.13
2022-07-25T11:08:22.181Z,40.09
2022-07-25T11:10:53.864Z,39.73
2022-07-25T11:13:26.066Z,38.94
2022-07-25T11:15:58.966Z,38.37
2022-07-25T11:18:36.592Z,38.83
2022-07-25T11:21:08.567Z,39.16
2022-07-25T11:23:38.553Z,38.63
2022-07-25T11:26:10.361Z,38.78
2022-07-25T11:28:45.826Z,39.14
2022-07-25T11:31:17.219Z,38.73
2022-07-25T11:33:50.525Z,38.21
2022-07-25T11:36:21.389Z,37.65
2022-07-25T11:38:51.745Z,38.31
2022-07-25T11:41:29.799Z,37.42
2022-07-25T11:44:01.230Z,38.47
2022-07-25T11:46:31.434Z,37.99
2022-07-25T11:49:08.671Z,38.18
2022-07-25T11:51:39.957Z,38.50
2022-07-25T11:54:11.810Z,38.16
2022-07-25T11:56:43.440Z,37.65
2022-07-25T11:59:15.290Z,37.53
2022-07-25T12:01:45.491Z,37.74
2022-07-25T12:04:18.295Z,37.48
2022-07-25T12:06:50.041Z,38.22
2022-07-25T12:09:22.297Z,36.81
2022-07-25T12:12:03.683Z,37.09
2022-07-25T12:14:44.909Z,37.24
2022-07-25T12:17:15.072Z,37.10
2022-07-25T12:19:47.151Z,36.63
2022-07-25T12:22:17.214Z,36.79
2022-07-25T12:24:47.163Z,36.10
2022-07-25T12:27:17.080Z,37.03
2022-07-25T12:29:49.333Z,37.27
2022-07-25T12:32:19.250Z,36.80
2022-07-25T12:34:49.295Z,37.36
2022-07-25T12:37:21.733Z,37.33
2022-07-25T12:39:51.787Z,37.76
2022-07-25T12:42:21.937Z,36.80
2022-07-25T12:44:53.340Z,36.91
2022-07-25T12:47:23.367Z,37.04
2022-07-25T12:49:53.281Z,37.70
2022-07-25T12:52:23.589Z,37.42
2022-07-25T12:54:53.871Z,36.55
2022-07-25T12:57:24.681Z,37.34
2022-07-25T12:59:56.533Z,37.69
2022-07-25T13:02:26.822Z,37.19
2022-07-25T13:04:56.949Z,37.13
2022-07-25T13:07:27.075Z,37.49
2022-07-25T13:09:57.391Z,36.99
2022-07-25T13:12:28.070Z,37.24
2022-07-25T13:14:59.782Z,37.75
2022-07-25T13:17:29.830Z,37.52
2022-07-25T13:20:00.188Z,37.25
2022-07-25T13:22:30.278Z,37.96
2022-07-25T13:25:00.295Z,37.18
2022-07-25T13:27:30.211Z,36.50
2022-07-25T13:30:01.557Z,37.27
2022-07-25T13:32:31.884Z,37.82
2022-07-25T13:35:02.391Z,37.00
2022-07-25T13:37:33.488Z,37.26
2022-07-25T13:40:03.577Z,37.36
2022-07-25T13:42:33.436Z,36.20
2022-07-25T13:45:04.992Z,36.68
2022-07-25T13:47:35.900Z,36.84
2022-07-25T13:50:06.610Z,37.40
2022-07-25T13:52:37.783Z,37.26
2022-07-25T13:55:10.437Z,37.33
2022-07-25T13:57:40.417Z,37.78
2022-07-25T14:00:13.548Z,37.36
2022-07-25T14:02:44.340Z,36.33
2022-07-25T14:05:14.784Z,36.86
2022-07-25T14:07:44.759Z,36.91
2022-07-25T14:10:14.812Z,39.47
2022-07-25T14:12:45.238Z,37.83
2022-07-25T14:15:17.707Z,36.38
2022-07-25T14:17:48.107Z,37.54
2022-07-25T14:20:18.065Z,35.84
2022-07-25T14:22:48.365Z,36.94
2022-07-25T14:25:18.330Z,36.70
2022-07-25T14:27:49.150Z,37.54
2022-07-25T14:30:20.523Z,35.84
2022-07-25T14:32:50.532Z,35.76
2022-07-25T14:35:20.921Z,36.70
2022-07-25T14:37:50.996Z,37.40
2022-07-25T14:40:20.974Z,38.13
2022-07-25T14:42:50.992Z,36.88
2022-07-25T14:45:23.064Z,36.74
2022-07-25T14:47:54.068Z,37.19
2022-07-25T14:50:24.456Z,37.20
2022-07-25T14:52:54.613Z,37.71
2022-07-25T14:55:25.965Z,38.07
2022-07-25T14:57:58.094Z,38.37
2022-07-25T15:00:30.006Z,36.87
2022-07-25T15:03:00.289Z,37.35
2022-07-25T15:05:30.810Z,37.78
2022-07-25T15:08:01.161Z,37.93
2022-07-25T15:10:31.285Z,37.25
2022-07-25T15:13:29.370Z,37.65
2022-07-25T15:15:54.673Z,38.44
2022-07-25T15:18:24.927Z,38.50
2022-07-25T15:21:05.386Z,38.22
2022-07-25T15:23:35.493Z,37.40
2022-07-25T15:26:06.368Z,38.61
2022-07-25T15:28:39.086Z,38.45
2022-07-25T15:31:10.702Z,39.12
2022-07-25T15:33:41.041Z,37.15
2022-07-25T15:36:11.540Z,37.27
2022-07-25T15:38:41.831Z,37.25
2022-07-25T15:41:12.312Z,37.70
2022-07-25T15:43:42.415Z,38.81
2022-07-25T15:46:18.005Z,39.23
2022-07-25T15:48:48.439Z,39.05
2022-07-25T15:51:19.001Z,39.61
2022-07-25T15:53:49.177Z,39.41
2022-07-25T15:56:19.488Z,39.20
2022-07-25T15:58:50.420Z,39.87
2022-07-25T16:01:22.273Z,39.53
2022-07-25T16:03:52.662Z,39.73
2022-07-25T16:06:23.714Z,39.95
2022-07-25T16:08:54.248Z,40.08
2022-07-25T16:11:24.417Z,40.75
2022-07-25T16:13:55.110Z,40.56
2022-07-25T16:16:27.249Z,40.80
2022-07-25T16:18:58.982Z,40.85
2022-07-25T16:21:29.145Z,40.88
2022-07-25T16:23:59.448Z,40.85
2022-07-25T16:26:29.561Z,40.67
2022-07-25T16:29:02.685Z,40.73
2022-07-25T16:31:35.066Z,41.02
2022-07-25T16:34:05.608Z,40.83
2022-07-25T16:36:36.882Z,40.93
2022-07-25T16:39:07.268Z,40.47
2022-07-25T16:41:37.797Z,40.34
2022-07-25T16:44:07.982Z,40.50
2022-07-25T16:46:39.654Z,40.90
2022-07-25T16:49:10.575Z,41.49
2022-07-25T16:51:41.088Z,41.52
2022-07-25T16:54:11.573Z,42.54
2022-07-25T16:56:42.455Z,42.12
2022-07-25T16:59:12.726Z,42.45
2022-07-25T17:01:46.658Z,42.72
2022-07-25T17:04:16.887Z,42.78
2022-07-25T17:06:49.350Z,42.79
2022-07-25T17:09:19.643Z,45.05
2022-07-25T17:11:50.306Z,43.49
2022-07-25T17:14:22.267Z,44.53
2022-07-25T17:16:55.406Z,44.07
2022-07-25T17:19:25.788Z,43.59
2022-07-25T17:21:56.074Z,44.52
2022-07-25T17:24:26.476Z,44.40
2022-07-25T17:26:56.888Z,45.48
2022-07-25T17:29:27.685Z,44.14
2022-07-25T17:31:59.710Z,43.86
2022-07-25T17:34:30.066Z,44.67
2022-07-25T17:37:03.231Z,44.10
2022-07-25T17:39:34.470Z,45.27
2022-07-25T17:42:07.489Z,44.57
2022-07-25T17:44:37.727Z,44.01
2022-07-25T17:47:09.325Z,44.42
2022-07-25T17:49:39.594Z,44.95
2022-07-25T17:52:12.442Z,45.21
2022-07-25T17:54:42.538Z,44.77
2022-07-25T17:57:12.763Z,44.85
2022-07-25T17:59:42.988Z,44.92
2022-07-25T18:02:14.546Z,45.32
2022-07-25T18:04:45.142Z,45.43
2022-07-25T18:07:15.423Z,45.35
2022-07-25T18:09:45.475Z,45.38
2022-07-25T18:12:15.723Z,45.54
2022-07-25T18:14:49.222Z,45.52
2022-07-25T18:17:21.986Z,45.68
2022-07-25T18:19:52.170Z,46.20
2022-07-25T18:22:22.342Z,45.85
2022-07-25T18:24:52.560Z,45.60
2022-07-25T18:27:22.939Z,45.49
2022-07-25T18:29:53.081Z,45.86
2022-07-25T18:32:24.548Z,46.10
2022-07-25T18:34:54.732Z,45.88
2022-07-25T18:37:25.292Z,46.48
2022-07-25T18:39:55.498Z,45.36
2022-07-25T18:42:29.743Z,46.56
2022-07-25T18:45:00.387Z,46.15
2022-07-25T18:47:33.941Z,46.29
2022-07-25T18:50:04.266Z,46.53
2022-07-25T18:52:36.472Z,45.67
2022-07-25T18:55:09.123Z,46.29
2022-07-25T18:57:39.548Z,45.97
2022-07-25T19:00:12.034Z,46.15
2022-07-25T19:02:43.607Z,45.86
2022-07-25T19:05:13.957Z,46.62
2022-07-25T19:07:45.041Z,46.24
2022-07-25T19:10:15.628Z,46.20
2022-07-25T19:12:46.571Z,46.56
2022-07-25T19:15:18.352Z,46.42
2022-07-25T19:17:49.965Z,46.66
2022-07-25T19:20:22.576Z,46.65
2022-07-25T19:22:53.040Z,46.57
2022-07-25T19:25:23.544Z,46.81
2022-07-25T19:27:54.167Z,47.31
2022-07-25T19:30:24.293Z,47.07
2022-07-25T19:32:55.824Z,47.55
2022-07-25T19:35:26.545Z,47.26
2022-07-25T19:37:56.807Z,47.50
2022-07-25T19:40:26.883Z,47.35
2022-07-25T19:42:57.001Z,47.16
2022-07-25T19:45:27.046Z,47.19
2022-07-25T19:47:58.589Z,47.65
2022-07-25T19:50:29.077Z,47.71
2022-07-25T19:52:59.191Z,48.12
2022-07-25T19:55:29.399Z,47.83
2022-07-25T19:57:59.583Z,47.59
2022-07-25T20:00:29.919Z,47.72
2022-07-25T20:03:01.637Z,48.19
2022-07-25T20:05:32.256Z,48.23
2022-07-25T20:08:02.713Z,48.47
2022-07-25T20:10:32.891Z,48.25
2022-07-25T20:13:03.804Z,48.36
2022-07-25T20:15:34.504Z,48.63
2022-07-25T20:18:06.034Z,48.46
2022-07-25T20:20:36.341Z,48.30
2022-07-25T20:23:06.387Z,48.78
2022-07-25T20:25:37.648Z,49.15
2022-07-25T20:28:08.163Z,49.00
2022-07-25T20:30:38.367Z,49.15
2022-07-25T20:33:10.167Z,49.24
2022-07-25T20:35:40.337Z,49.37
2022-07-25T20:38:11.013Z,49.69
2022-07-25T20:40:46.273Z,49.70
2022-07-25T20:43:16.646Z,50.14
2022-07-25T20:45:48.005Z,50.87
2022-07-25T20:48:19.618Z,51.19
2022-07-25T20:50:49.999Z,51.36
2022-07-25T20:53:20.383Z,51.00
2022-07-25T20:55:50.879Z,50.88
2022-07-25T20:58:21.444Z,50.85
2022-07-25T21:00:51.568Z,51.20
2022-07-25T21:03:25.758Z,50.86
2022-07-25T21:05:55.980Z,50.87
2022-07-25T21:08:26.213Z,50.94
2022-07-25T21:10:56.347Z,50.80
2022-07-25T21:13:26.922Z,50.67
2022-07-25T21:16:01.376Z,51.06
2022-07-25T21:18:32.881Z,50.91
2022-07-25T21:21:03.248Z,51.01
2022-07-25T21:23:33.558Z,51.17
2022-07-25T21:26:04.756Z,51.10
2022-07-25T21:28:35.109Z,50.99
2022-07-25T21:31:05.181Z,51.42
2022-07-25T21:33:36.638Z,51.65
2022-07-25T21:36:07.580Z,51.44
2022-07-25T21:38:38.597Z,51.88
2022-07-25T21:41:09.495Z,51.71
2022-07-25T21:43:39.586Z,51.82
2022-07-25T21:46:09.710Z,51.70
2022-07-25T21:48:58.493Z,51.70
2022-07-25T21:51:38.186Z,51.71
2022-07-25T21:54:13.089Z,52.19
2022-07-25T21:56:43.257Z,52.31
2022-07-25T21:59:13.641Z,52.13
2022-07-25T22:01:44.379Z,52.11
2022-07-25T22:04:15.918Z,52.37
2022-07-25T22:06:45.818Z,52.48
2022-07-25T22:09:15.915Z,52.62
2022-07-25T22:11:46.929Z,52.72
2022-07-25T22:14:17.767Z,52.99
2022-07-25T22:16:47.996Z,52.83
2022-07-25T22:19:22.329Z,52.81
2022-07-25T22:21:52.935Z,53.32
2022-07-25T22:24:22.859Z,53.56
2022-07-25T22:26:52.751Z,53.42
2022-07-25T22:29:22.745Z,53.42
2022-07-25T22:31:52.932Z,53.63
2022-07-25T22:34:24.409Z,53.46
2022-07-25T22:36:54.434Z,53.45
2022-07-25T22:39:24.909Z,53.31
2022-07-25T22:41:54.827Z,53.50
2022-07-25T22:44:24.963Z,53.53
2022-07-25T22:46:54.823Z,54.03
2022-07-25T22:49:26.316Z,55.11
2022-07-25T22:51:56.256Z,55.34
2022-07-25T22:54:26.791Z,55.68
2022-07-25T22:56:56.714Z,55.62
2022-07-25T22:59:26.889Z,55.46
2022-07-25T23:01:56.849Z,55.59
2022-07-25T23:04:28.237Z,56.09
2022-07-25T23:06:59.055Z,55.22
2022-07-25T23:09:36.055Z,55.10
2022-07-25T23:12:07.511Z,54.98
2022-07-25T23:14:38.428Z,55.43
2022-07-25T23:17:21.027Z,55.41
2022-07-25T23:19:54.467Z,55.44
2022-07-25T23:22:26.783Z,55.27
2022-07-25T23:24:57.196Z,55.67
2022-07-25T23:27:27.939Z,55.98
2022-07-25T23:30:03.878Z,55.63
2022-07-25T23:32:33.921Z,55.49
2022-07-25T23:35:06.033Z,55.93
2022-07-25T23:37:35.953Z,56.73
2022-07-25T23:40:07.391Z,56.87
2022-07-25T23:42:37.219Z,56.34
2022-07-25T23:45:08.230Z,56.72
2022-07-25T23:47:40.605Z,57.05
2022-07-25T23:50:12.646Z,57.04
2022-07-25T23:52:42.515Z,57.09
2022-07-25T23:55:12.386Z,56.83
2022-07-25T23:57:42.234Z,56.73
